Time;durP1;ratioP1;P1;durP2;ratioP2;P2;SDS_P1;SDS_P2;PMS_P1;PMS_P2;Temp;Humidity;BMP_temperature;BMP_pressure;BME280_temperature;BME280_humidity;BME280_pressure;Samples;Min_cycle;Max_cycle;Signal;HPM_P1;HPM_P2
2022/09/22 00:02:39;;;;;;;20.17;14.00;;;;;;;7.20;100.00;99384.94;2173026;81;21000;-82
2022/09/22 00:05:39;;;;;;;16.17;13.87;;;;;;;7.15;100.00;99387.79;2173235;81;20937;-81
2022/09/22 00:08:39;;;;;;;18.90;13.80;;;;;;;7.10;100.00;99383.74;2173535;82;20992;-82
2022/09/22 00:11:41;;;;;;;22.20;14.07;;;;;;;7.09;100.00;99389.77;2173553;81;21423;-82
2022/09/22 00:14:40;;;;;;;20.60;14.20;;;;;;;7.07;100.00;99387.95;2173204;81;21051;-81
2022/09/22 00:17:41;;;;;;;17.40;13.73;;;;;;;7.05;100.00;99387.02;2173528;81;20992;-81
2022/09/22 00:20:41;;;;;;;19.47;14.77;;;;;;;7.02;100.00;99382.59;2173412;81;20956;-81
2022/09/22 00:23:41;;;;;;;20.07;13.90;;;;;;;6.98;100.00;99381.61;2173428;81;20924;-81
2022/09/22 00:26:42;;;;;;;17.37;14.20;;;;;;;6.96;100.00;99384.56;2173480;81;20937;-81
2022/09/22 00:29:43;;;;;;;20.97;13.13;;;;;;;6.95;100.00;99383.22;2173238;81;21372;-82
2022/09/22 00:32:43;;;;;;;19.47;14.40;;;;;;;6.94;100.00;99387.94;2173148;82;20916;-83
2022/09/22 00:35:43;;;;;;;20.67;13.90;;;;;;;6.92;100.00;99386.55;2173208;82;20972;-82
2022/09/22 00:38:44;;;;;;;16.27;13.80;;;;;;;6.89;100.00;99384.27;2172812;81;21079;-82
2022/09/22 00:41:44;;;;;;;18.60;13.00;;;;;;;6.87;100.00;99391.12;2173043;81;20964;-83
2022/09/22 00:44:44;;;;;;;17.20;13.97;;;;;;;6.83;100.00;99391.84;2173435;81;20957;-82
2022/09/22 00:47:45;;;;;;;21.53;15.47;;;;;;;6.81;100.00;99388.30;2173604;81;20989;-81
2022/09/22 00:50:45;;;;;;;19.70;15.37;;;;;;;6.81;100.00;99389.19;2173168;81;20968;-82
2022/09/22 00:53:46;;;;;;;21.67;13.50;;;;;;;6.79;100.00;99389.97;2173219;81;21278;-83
2022/09/22 00:56:46;;;;;;;20.67;13.33;;;;;;;6.78;100.00;99396.87;2173220;81;21054;-82
2022/09/22 00:59:46;;;;;;;16.13;14.10;;;;;;;6.77;100.00;99390.33;2173600;82;20949;-83
2022/09/22 01:02:47;;;;;;;19.87;14.50;;;;;;;6.76;100.00;99393.75;2173444;81;21392;-82
2022/09/22 01:05:47;;;;;;;19.87;13.80;;;;;;;6.73;100.00;99396.23;2173620;81;21336;-81
2022/09/22 01:08:48;;;;;;;22.27;14.40;;;;;;;6.70;100.00;99391.81;2173318;81;21036;-81
2022/09/22 01:11:48;;;;;;;15.50;12.13;;;;;;;6.65;100.00;99386.88;2173635;81;20956;-82
2022/09/22 01:14:48;;;;;;;16.40;12.80;;;;;;;6.63;100.00;99384.64;2173989;81;20952;-82
2022/09/22 01:17:49;;;;;;;16.47;11.83;;;;;;;6.61;100.00;99392.38;2173779;81;20979;-82
2022/09/22 01:20:49;;;;;;;20.37;12.27;;;;;;;6.58;100.00;99387.48;2173469;81;21011;-80
2022/09/22 01:23:50;;;;;;;15.17;11.67;;;;;;;6.57;100.00;99387.02;2173663;81;20913;-81
2022/09/22 01:26:50;;;;;;;16.20;11.60;;;;;;;6.51;100.00;99390.69;2173679;81;21236;-82
2022/09/22 01:29:50;;;;;;;16.50;11.70;;;;;;;6.45;100.00;99399.54;2173933;81;21363;-83
2022/09/22 01:32:51;;;;;;;22.23;12.50;;;;;;;6.37;100.00;99396.66;2173647;81;20988;-81
2022/09/22 01:35:51;;;;;;;16.07;11.10;;;;;;;6.29;100.00;99393.78;2173592;82;20976;-81
2022/09/22 01:38:52;;;;;;;20.03;10.63;;;;;;;6.25;100.00;99390.61;2173554;81;21020;-81
2022/09/22 01:41:52;;;;;;;20.50;11.00;;;;;;;6.23;100.00;99388.38;2173599;81;21305;-82
2022/09/22 01:44:52;;;;;;;12.60;10.13;;;;;;;6.20;100.00;99383.48;2173642;81;20929;-82
2022/09/22 01:47:53;;;;;;;16.97;11.23;;;;;;;6.17;100.00;99380.37;2173854;81;20932;-82
2022/09/22 01:50:53;;;;;;;16.23;11.33;;;;;;;6.19;100.00;99386.49;2173491;81;21388;-82
2022/09/22 01:53:54;;;;;;;22.00;11.73;;;;;;;6.23;100.00;99384.48;2173580;82;20929;-81
2022/09/22 01:56:54;;;;;;;18.57;12.33;;;;;;;6.26;100.00;99379.41;2173603;81;20953;-82
2022/09/22 01:59:54;;;;;;;18.50;13.20;;;;;;;6.27;100.00;99381.59;2173277;81;20997;-82
2022/09/22 02:02:55;;;;;;;21.17;14.80;;;;;;;6.29;100.00;99382.53;2182451;81;20964;-81
2022/09/22 02:05:55;;;;;;;24.30;17.90;;;;;;;6.33;100.00;99386.59;2189399;81;21372;-81
2022/09/22 02:08:56;;;;;;;23.37;15.07;;;;;;;6.37;100.00;99382.41;2189023;81;21051;-82
2022/09/22 02:11:56;;;;;;;34.17;19.00;;;;;;;6.38;100.00;99385.05;2188993;81;20959;-81
2022/09/22 02:14:57;;;;;;;46.17;23.20;;;;;;;6.41;100.00;99384.70;2190077;81;21263;-82
2022/09/22 02:17:57;;;;;;;74.00;21.30;;;;;;;6.45;100.00;99387.88;2189922;81;21348;-82
2022/09/22 02:20:57;;;;;;;51.93;21.53;;;;;;;6.47;100.00;99382.33;2189851;81;20925;-82
2022/09/22 02:23:59;;;;;;;98.83;23.57;;;;;;;6.47;100.00;99384.50;2189768;81;20929;-82
2022/09/22 02:26:58;;;;;;;64.77;22.47;;;;;;;6.50;100.00;99390.22;2190108;81;21021;-82
2022/09/22 02:29:59;;;;;;;76.67;20.87;;;;;;;6.48;100.00;99390.58;2190102;81;20940;-82
2022/09/22 02:32:59;;;;;;;133.50;20.93;;;;;;;6.48;100.00;99386.27;2190175;81;20960;-81
2022/09/22 02:35:59;;;;;;;128.17;22.10;;;;;;;6.53;100.00;99381.25;2190105;81;21312;-82
2022/09/22 02:39:00;;;;;;;55.40;18.73;;;;;;;6.55;100.00;99388.67;2190011;81;20948;-82
2022/09/22 02:42:00;;;;;;;35.43;18.90;;;;;;;6.58;100.00;99389.67;2190294;81;20932;-82
2022/09/22 02:45:01;;;;;;;30.20;18.40;;;;;;;6.64;100.00;99389.89;2189786;81;20964;-81
2022/09/22 02:48:01;;;;;;;34.20;18.23;;;;;;;6.67;100.00;99390.41;2189977;81;20943;-82
2022/09/22 02:51:01;;;;;;;31.27;17.40;;;;;;;6.70;100.00;99390.11;2190160;81;20987;-80
2022/09/22 02:54:02;;;;;;;33.60;17.93;;;;;;;6.72;100.00;99391.45;2190560;81;20908;-83
2022/09/22 02:57:02;;;;;;;31.73;17.40;;;;;;;6.78;100.00;99385.61;2190247;81;21369;-82
2022/09/22 03:00:03;;;;;;;28.27;18.40;;;;;;;6.82;100.00;99386.18;2189307;81;20996;-80
2022/09/22 03:03:03;;;;;;;27.27;18.10;;;;;;;6.83;100.00;99388.83;2189284;81;21016;-82
2022/09/22 03:06:03;;;;;;;36.97;20.43;;;;;;;6.88;100.00;99388.99;2189317;81;21003;-82
2022/09/22 03:09:04;;;;;;;29.23;19.50;;;;;;;6.90;100.00;99390.81;2188484;81;22013;-83
2022/09/22 03:12:04;;;;;;;41.87;18.50;;;;;;;6.94;100.00;99390.53;2188407;81;20964;-81
2022/09/22 03:15:05;;;;;;;51.70;18.17;;;;;;;6.96;100.00;99386.28;2188608;81;20999;-80
2022/09/22 03:18:05;;;;;;;38.23;18.20;;;;;;;6.98;100.00;99381.61;2189584;81;20948;-81
2022/09/22 03:21:05;;;;;;;59.33;18.90;;;;;;;7.02;100.00;99383.89;2190548;81;20961;-83
2022/09/22 03:24:06;;;;;;;57.97;20.10;;;;;;;7.03;100.00;99381.77;2190247;81;20924;-82
2022/09/22 03:27:06;;;;;;;91.90;18.60;;;;;;;7.05;100.00;99387.02;2190284;81;20909;-83
2022/09/22 03:30:07;;;;;;;38.90;19.83;;;;;;;7.10;100.00;99385.04;2189790;81;21347;-82
2022/09/22 03:33:07;;;;;;;69.20;19.50;;;;;;;7.14;100.00;99389.92;2189979;81;20977;-81
2022/09/22 03:36:07;;;;;;;69.13;18.13;;;;;;;7.16;100.00;99383.06;2189802;81;20980;-80
2022/09/22 03:39:08;;;;;;;142.30;21.00;;;;;;;7.18;100.00;99387.89;2188449;81;21474;-82
2022/09/22 03:42:08;;;;;;;84.40;18.57;;;;;;;7.20;100.00;99384.94;2187685;81;20980;-81
2022/09/22 03:45:09;;;;;;;185.17;20.43;;;;;;;7.24;100.00;99382.91;2187459;81;20965;-82
2022/09/22 03:48:09;;;;;;;125.37;18.97;;;;;;;7.25;100.00;99391.16;2187367;81;21012;-82
2022/09/22 03:51:10;;;;;;;120.17;21.13;;;;;;;7.23;100.00;99382.44;2187346;81;20940;-84
2022/09/22 03:54:11;;;;;;;144.87;22.90;;;;;;;7.23;100.00;99387.63;2187925;81;20963;-81
2022/09/22 03:57:10;;;;;;;182.37;20.27;;;;;;;7.24;100.00;99387.69;2186483;81;21602;-83
2022/09/22 04:00:12;;;;;;;239.73;21.53;;;;;;;7.26;100.00;99386.44;2186330;81;21015;-82
2022/09/22 04:03:12;;;;;;;173.93;21.70;;;;;;;7.27;100.00;99388.20;2186224;81;21024;-80
2022/09/22 04:06:12;;;;;;;188.77;20.70;;;;;;;7.29;100.00;99378.75;2186587;81;20971;-79
2022/09/22 04:09:12;;;;;;;212.37;23.43;;;;;;;7.31;100.00;99390.07;2186735;81;21067;-82
2022/09/22 04:12:12;;;;;;;207.10;23.80;;;;;;;7.31;100.00;99388.36;2186757;81;20980;-82
2022/09/22 04:15:13;;;;;;;227.50;21.23;;;;;;;7.30;100.00;99387.89;2187237;81;20976;-80
2022/09/22 04:18:14;;;;;;;198.57;22.47;;;;;;;7.27;100.00;99394.28;2187145;81;21040;-82
2022/09/22 04:21:14;;;;;;;213.53;23.80;;;;;;;7.22;100.00;99397.14;2188191;81;20987;-82
2022/09/22 04:24:15;;;;;;;239.50;23.37;;;;;;;7.24;100.00;99390.28;2188476;81;21224;-83
2022/09/22 04:27:15;;;;;;;216.27;21.97;;;;;;;7.24;100.00;99394.17;2187794;81;21006;-81
2022/09/22 04:30:15;;;;;;;196.03;20.37;;;;;;;7.22;100.00;99391.06;2187835;81;20948;-82
2022/09/22 04:33:15;;;;;;;159.57;20.20;;;;;;;7.19;100.00;99387.95;2188753;81;20979;-79
2022/09/22 04:36:16;;;;;;;164.27;19.37;;;;;;;7.13;100.00;99388.16;2188510;81;20956;-81
2022/09/22 04:39:16;;;;;;;174.30;18.87;;;;;;;7.11;100.00;99388.10;2188250;81;21498;-81
2022/09/22 04:42:16;;;;;;;146.00;17.77;;;;;;;7.11;100.00;99387.22;2186664;81;21039;-81
2022/09/22 04:45:17;;;;;;;154.33;18.73;;;;;;;7.10;100.00;99388.94;2187487;81;21003;-81
2022/09/22 04:48:17;;;;;;;122.23;19.27;;;;;;;7.12;100.00;99391.58;2187015;81;20990;-80
2022/09/22 04:51:18;;;;;;;194.17;19.50;;;;;;;7.16;100.00;99397.34;2186023;81;21340;-80
2022/09/22 04:54:18;;;;;;;127.20;19.97;;;;;;;7.14;100.00;99400.30;2185896;81;20987;-80
2022/09/22 04:57:18;;;;;;;184.33;23.77;;;;;;;7.16;100.00;99396.05;2186675;81;20932;-80
2022/09/22 05:00:19;;;;;;;115.10;23.00;;;;;;;7.18;100.00;99395.69;2186729;81;20947;-80
2022/09/22 05:03:19;;;;;;;132.30;25.93;;;;;;;7.15;100.00;99404.67;2187431;81;21024;-82
2022/09/22 05:06:20;;;;;;;99.50;26.90;;;;;;;7.20;100.00;99403.11;2187431;81;21000;-84
2022/09/22 05:09:20;;;;;;;127.93;21.87;;;;;;;7.25;100.00;99402.84;2186792;81;21011;-77
2022/09/22 05:12:20;;;;;;;130.10;22.70;;;;;;;7.28;100.00;99405.13;2185470;81;20999;-79
2022/09/22 05:15:24;;;;;;;97.33;21.60;;;;;;;7.28;100.00;99402.54;2186585;81;21030;-82
2022/09/22 05:18:24;;;;;;;141.77;22.10;;;;;;;7.30;100.00;99405.19;2187377;81;20983;-81
2022/09/22 05:21:25;;;;;;;113.93;19.57;;;;;;;7.33;100.00;99411.78;2187043;81;20952;-82
2022/09/22 05:24:26;;;;;;;121.53;20.83;;;;;;;7.35;100.00;99411.41;2186573;81;20991;-82
2022/09/22 05:27:26;;;;;;;123.37;23.47;;;;;;;7.36;100.00;99413.18;2186258;81;20943;-82
2022/09/22 05:30:26;;;;;;;170.37;22.67;;;;;;;7.38;100.00;99416.71;2186216;81;21003;-83
2022/09/22 05:33:26;;;;;;;157.97;21.90;;;;;;;7.38;100.00;99416.71;2186293;81;20956;-82
2022/09/22 05:36:27;;;;;;;78.87;21.87;;;;;;;7.45;100.00;99413.48;2186148;81;20964;-81
2022/09/22 05:39:27;;;;;;;124.63;23.13;;;;;;;7.52;100.00;99415.88;2185831;81;21803;-82
2022/09/22 05:42:28;;;;;;;75.80;22.80;;;;;;;7.54;100.00;99418.98;2185633;81;21023;-80
2022/09/22 05:45:28;;;;;;;95.83;23.73;;;;;;;7.57;100.00;99413.01;2186020;81;21303;-81
2022/09/22 05:48:29;;;;;;;80.47;24.50;;;;;;;7.58;100.00;99414.36;2185771;81;20976;-82
2022/09/22 05:51:29;;;;;;;125.63;24.30;;;;;;;7.62;100.00;99412.33;2185618;81;20991;-81
2022/09/22 05:54:29;;;;;;;110.00;23.87;;;;;;;7.69;100.00;99414.70;2185087;81;21057;-81
2022/09/22 05:57:30;;;;;;;113.10;23.40;;;;;;;7.74;100.00;99413.55;2185837;81;20996;-81
2022/09/22 06:00:30;;;;;;;66.40;22.97;;;;;;;7.80;100.00;99415.05;2186270;81;21053;-80
2022/09/22 06:03:30;;;;;;;73.73;22.17;;;;;;;7.85;100.00;99420.00;2179779;81;21404;-80
2022/09/22 06:06:31;;;;;;;61.43;20.93;;;;;;;7.88;100.00;99420.10;2169528;81;21017;-81
2022/09/22 06:09:31;;;;;;;57.20;21.57;;;;;;;7.93;100.00;99428.92;2169619;81;21047;-81
2022/09/22 06:12:32;;;;;;;42.23;19.63;;;;;;;7.98;100.00;99432.13;2169419;81;21005;-80
2022/09/22 06:15:35;;;;;;;62.20;21.73;;;;;;;8.03;100.00;99434.88;2168941;81;20956;-82
2022/09/22 06:18:35;;;;;;;40.70;19.77;;;;;;;8.07;100.00;99439.34;2169347;81;21071;-81
2022/09/22 06:21:36;;;;;;;52.00;19.53;;;;;;;8.15;100.00;99440.45;2169076;81;21348;-80
2022/09/22 06:24:37;;;;;;;82.17;22.10;;;;;;;8.24;100.00;99440.73;2168436;82;21780;-81
2022/09/22 06:27:38;;;;;;;34.60;16.83;;;;;;;8.26;100.00;99443.39;2168915;81;20949;-81
2022/09/22 06:30:41;;;;;;;52.83;18.87;;;;;;;8.40;100.00;99435.61;2169333;81;20948;-80
2022/09/22 06:33:39;;;;;;;38.60;15.80;;;;;;;8.40;100.00;99435.61;2169788;81;20964;-82
2022/09/22 06:36:39;;;;;;;61.17;16.07;;;;;;;8.47;100.00;99433.66;2169840;81;21432;-81
2022/09/22 06:39:39;;;;;;;50.77;16.07;;;;;;;8.60;100.00;99437.08;2169716;81;21083;-80
2022/09/22 06:42:41;;;;;;;54.07;14.77;;;;;;;8.57;100.00;99436.98;2169768;81;21027;-80
2022/09/22 06:45:41;;;;;;;41.60;14.70;;;;;;;8.51;100.00;99430.72;2169775;81;21392;-81
2022/09/22 06:48:40;;;;;;;53.93;15.27;;;;;;;8.49;100.00;99429.80;2170101;81;21039;-81
2022/09/22 06:51:41;;;;;;;62.73;13.70;;;;;;;8.57;100.00;99433.09;2169681;81;20969;-79
2022/09/22 06:54:41;;;;;;;49.73;14.33;;;;;;;8.63;100.00;99428.48;2169726;81;21004;-81
2022/09/22 06:57:42;;;;;;;36.57;13.60;;;;;;;8.57;100.00;99434.39;2170205;81;21035;-81
2022/09/22 07:00:42;;;;;;;55.67;15.07;;;;;;;8.57;100.00;99433.50;2169995;81;21730;-79
2022/09/22 07:03:43;;;;;;;36.03;14.60;;;;;;;8.61;100.00;99439.27;2175914;81;21003;-80
2022/09/22 07:06:44;;;;;;;25.57;15.50;;;;;;;8.63;100.00;99446.69;2186633;81;21016;-80
2022/09/22 07:09:44;;;;;;;42.27;14.87;;;;;;;8.69;100.00;99441.70;2186817;81;21035;-81
2022/09/22 07:12:44;;;;;;;28.43;14.00;;;;;;;8.74;100.00;99444.02;2185814;81;21036;-81
2022/09/22 07:15:44;;;;;;;29.53;14.27;;;;;;;8.81;100.00;99445.95;2186551;81;20971;-80
2022/09/22 07:18:44;;;;;;;28.07;13.87;;;;;;;8.90;100.00;99444.02;2186378;81;21275;-81
2022/09/22 07:21:46;;;;;;;25.30;15.30;;;;;;;9.03;100.00;99447.84;2186219;81;20983;-80
2022/09/22 07:24:45;;;;;;;24.93;14.80;;;;;;;8.94;100.00;99445.88;2186007;81;20999;-80
2022/09/22 07:27:46;;;;;;;23.20;14.93;;;;;;;9.09;100.00;99444.98;2186142;81;21031;-79
2022/09/22 07:30:46;;;;;;;29.87;16.03;;;;;;;9.19;99.80;99441.80;2186787;81;20983;-80
2022/09/22 07:33:47;;;;;;;20.40;14.77;;;;;;;9.26;100.00;99439.81;2186239;81;21070;-80
2022/09/22 07:36:48;;;;;;;20.90;15.10;;;;;;;9.30;99.74;99437.28;2187843;81;20963;-80
2022/09/22 07:39:47;;;;;;;24.30;16.20;;;;;;;9.38;99.55;99440.55;2186087;81;21047;-79
2022/09/22 07:42:48;;;;;;;18.83;14.80;;;;;;;9.49;99.06;99442.13;2185430;81;20999;-79
2022/09/22 07:45:48;;;;;;;26.87;14.13;;;;;;;9.63;99.01;99445.12;2186236;81;20991;-79
2022/09/22 07:48:49;;;;;;;18.37;13.80;;;;;;;9.78;98.34;99438.98;2185378;81;20992;-79
2022/09/22 07:51:53;;;;;;;23.63;16.43;;;;;;;9.85;98.14;99439.59;2185007;81;21031;-78
2022/09/22 07:54:49;;;;;;;27.60;17.87;;;;;;;9.91;98.04;99441.03;2183450;81;21391;-79
2022/09/22 07:57:50;;;;;;;32.77;17.77;;;;;;;9.93;97.98;99436.73;2183762;81;21450;-80
2022/09/22 08:00:50;;;;;;;32.73;15.67;;;;;;;10.07;98.25;99435.76;2185539;81;20964;-80
2022/09/22 08:03:51;;;;;;;21.67;13.90;;;;;;;10.35;97.51;99440.78;2177894;81;21024;-80
2022/09/22 08:06:52;;;;;;;18.62;13.75;;;;;;;10.57;96.32;99434.75;2166892;81;21044;-79
2022/09/22 08:09:51;;;;;;;22.82;12.88;;;;;;;10.72;94.01;99438.56;2167237;81;21000;-81
2022/09/22 08:12:52;;;;;;;17.02;13.48;;;;;;;10.89;94.98;99432.80;2168208;81;21400;-79
2022/09/22 08:15:53;;;;;;;15.93;13.08;;;;;;;11.10;94.50;99426.26;2169087;81;21004;-79
2022/09/22 08:18:54;;;;;;;18.37;13.65;;;;;;;11.12;93.07;99437.63;2165274;81;21003;-80
2022/09/22 08:21:53;;;;;;;19.60;14.58;;;;;;;11.00;92.31;99439.12;2166879;81;21048;-79
2022/09/22 08:24:58;;;;;;;18.73;13.62;;;;;;;10.86;92.46;99442.77;2165768;81;20973;-79
2022/09/22 08:27:56;;;;;;;15.50;13.15;;;;;;;10.81;91.92;99446.59;2158293;82;21306;-79
2022/09/22 08:30:57;;;;;;;15.30;13.50;;;;;;;10.80;92.53;99443.52;2167507;81;20969;-79
2022/09/22 08:33:57;;;;;;;20.70;13.22;;;;;;;10.72;92.15;99442.48;2167374;81;21533;-79
2022/09/22 08:36:57;;;;;;;20.40;14.35;;;;;;;10.72;93.05;99450.31;2168712;82;21091;-80
2022/09/22 08:39:57;;;;;;;18.57;15.93;;;;;;;10.59;92.70;99448.30;2169586;82;21104;-78
2022/09/22 08:42:58;;;;;;;16.15;12.80;;;;;;;10.58;93.40;99455.67;2168550;81;21040;-80
2022/09/22 08:45:58;;;;;;;18.83;14.33;;;;;;;10.72;92.17;99448.12;2169806;81;21007;-81
2022/09/22 08:52:18;;;;;;;15.70;13.75;;;;;;;10.97;91.62;99456.03;2168951;82;20981;-79
2022/09/22 08:55:18;;;;;;;16.85;14.78;;;;;;;11.06;91.10;99452.30;2169581;81;20992;-79
2022/09/22 08:58:19;;;;;;;16.32;14.03;;;;;;;11.14;91.71;99451.59;2169631;81;21040;-79
2022/09/22 09:01:19;;;;;;;15.60;13.90;;;;;;;11.22;91.78;99450.44;2170704;81;20956;-79
2022/09/22 09:04:19;;;;;;;16.45;14.55;;;;;;;11.15;91.58;99452.05;2170054;81;21047;-78
2022/09/22 09:07:20;;;;;;;18.32;12.93;;;;;;;11.19;91.19;99443.84;2169685;81;21954;-79
2022/09/22 09:10:20;;;;;;;18.30;15.00;;;;;;;11.36;89.43;99458.56;2169740;81;21044;-79
2022/09/22 09:13:21;;;;;;;23.75;15.58;;;;;;;11.61;90.29;99450.73;2167270;81;20988;-79
2022/09/22 09:16:21;;;;;;;13.75;12.23;;;;;;;11.90;87.38;99449.94;2166421;81;20957;-79
2022/09/22 09:19:21;;;;;;;17.65;13.10;;;;;;;12.09;87.92;99450.25;2166551;81;21048;-78
2022/09/22 09:22:24;;;;;;;17.00;12.85;;;;;;;12.19;86.03;99448.69;2166073;81;20995;-78
2022/09/22 09:25:22;;;;;;;11.68;10.48;;;;;;;12.15;84.30;99445.57;2166841;81;21024;-79
2022/09/22 09:28:23;;;;;;;11.40;10.30;;;;;;;12.16;83.55;99445.14;2167082;81;21051;-79
2022/09/22 09:31:26;;;;;;;13.83;11.80;;;;;;;12.16;85.82;99441.22;2166087;81;20992;-79
2022/09/22 09:34:24;;;;;;;14.05;11.78;;;;;;;12.33;85.40;99442.34;2166296;81;20996;-78
2022/09/22 09:37:24;;;;;;;13.05;11.38;;;;;;;12.34;83.11;99442.80;2166431;81;21016;-79
2022/09/22 09:40:24;;;;;;;17.92;13.68;;;;;;;12.37;83.55;99440.22;2165947;81;21680;-79
2022/09/22 09:43:26;;;;;;;13.60;10.65;;;;;;;12.36;84.71;99440.65;2169159;81;21019;-79
2022/09/22 09:46:25;;;;;;;9.25;8.45;;;;;;;12.48;84.05;99441.25;2166937;81;20937;-79
2022/09/22 09:49:26;;;;;;;13.62;9.93;;;;;;;12.55;82.10;99433.92;2166589;81;20960;-78
2022/09/22 09:52:26;;;;;;;13.90;9.63;;;;;;;12.62;83.12;99437.07;2166367;81;21415;-78
2022/09/22 09:55:27;;;;;;;7.70;6.92;;;;;;;12.84;82.21;99434.72;2166684;81;21009;-79
2022/09/22 10:01:46;;;;;;;10.93;8.35;;;;;;;13.01;79.88;99430.59;2167096;82;21019;-78
2022/09/22 10:04:47;;;;;;;14.10;9.48;;;;;;;13.19;80.78;99432.13;2168869;81;21035;-77
2022/09/22 10:07:47;;;;;;;11.48;9.30;;;;;;;13.40;81.05;99436.72;2168372;81;21007;-79
2022/09/22 10:10:47;;;;;;;11.40;8.78;;;;;;;13.57;80.71;99436.87;2168192;81;21047;-80
2022/09/22 10:13:48;;;;;;;12.18;8.95;;;;;;;13.60;78.51;99441.72;2169316;81;20960;-79
2022/09/22 10:16:48;;;;;;;8.73;7.90;;;;;;;13.51;77.65;99437.70;2169718;81;20985;-80
2022/09/22 10:19:49;;;;;;;8.98;8.08;;;;;;;13.66;77.72;99436.96;2168731;81;21427;-79
2022/09/22 10:22:49;;;;;;;7.62;6.92;;;;;;;13.76;76.79;99431.36;2168661;81;21289;-79
2022/09/22 10:25:50;;;;;;;12.13;7.92;;;;;;;13.96;76.21;99425.87;2168899;82;20987;-79
2022/09/22 10:28:50;;;;;;;7.22;6.53;;;;;;;14.07;75.08;99422.01;2169843;81;21318;-81
2022/09/22 10:31:50;;;;;;;7.08;6.47;;;;;;;14.14;72.67;99436.93;2170016;81;21618;-79
2022/09/22 10:34:53;;;;;;;7.45;6.75;;;;;;;14.35;74.54;99432.70;2170267;81;21460;-80
2022/09/22 10:37:51;;;;;;;7.20;6.50;;;;;;;14.50;70.87;99421.86;2169505;81;21828;-81
2022/09/22 10:40:52;;;;;;;7.37;6.78;;;;;;;14.43;70.71;99421.39;2169265;81;21539;-79
2022/09/22 10:43:52;;;;;;;8.95;8.10;;;;;;;14.38;72.42;99421.77;2169233;81;21000;-79
2022/09/22 10:46:54;;;;;;;8.05;7.22;;;;;;;14.48;72.21;99421.86;2169408;81;20945;-79
2022/09/22 10:49:55;;;;;;;17.12;7.30;;;;;;;14.42;71.90;99419.20;2169875;81;21047;-82
2022/09/22 10:52:55;;;;;;;6.90;6.30;;;;;;;14.37;76.14;99415.64;2162959;82;20937;-81
2022/09/22 10:55:56;;;;;;;7.87;6.62;;;;;;;14.88;72.07;99420.32;2170175;81;20973;-78
2022/09/22 10:58:56;;;;;;;9.63;6.90;;;;;;;14.86;70.75;99414.62;2169902;81;20984;-80
2022/09/22 11:01:57;;;;;;;7.40;6.70;;;;;;;14.77;70.56;99418.09;2169773;81;21048;-79
2022/09/22 11:04:57;;;;;;;8.33;7.53;;;;;;;14.83;72.34;99414.61;2176012;81;21012;-79
2022/09/22 11:14:35;;;;;;;7.03;6.40;;;;;;;14.59;69.71;99408.34;2186250;81;21048;-78
2022/09/22 11:17:37;;;;;;;8.93;6.92;;;;;;;14.64;69.77;99400.48;2186167;81;21022;-75
2022/09/22 11:20:36;;;;;;;9.90;7.55;;;;;;;14.72;70.68;99392.63;2186301;81;21008;-75
2022/09/22 11:23:36;;;;;;;9.88;7.00;;;;;;;14.63;69.78;99394.34;2186824;81;20932;-79
2022/09/22 11:26:36;;;;;;;8.05;7.30;;;;;;;14.46;70.03;99396.02;2185419;81;20967;-78
2022/09/22 11:29:37;;;;;;;7.92;7.22;;;;;;;14.26;71.22;99395.00;2184271;81;20988;-79
2022/09/22 11:32:37;;;;;;;8.08;7.35;;;;;;;14.11;71.98;99392.28;2185599;81;20995;-78
2022/09/22 11:35:38;;;;;;;10.55;8.03;;;;;;;14.13;71.53;99394.48;2185529;81;21802;-79
2022/09/22 11:38:38;;;;;;;135.50;16.95;;;;;;;14.24;71.79;99388.42;2185981;81;21026;-79
2022/09/22 11:41:39;;;;;;;9.98;8.78;;;;;;;14.24;72.15;99383.17;2185447;81;21035;-79
2022/09/22 11:44:39;;;;;;;9.23;8.43;;;;;;;14.23;71.46;99385.36;2184669;81;20983;-79
2022/09/22 11:47:40;;;;;;;8.58;7.78;;;;;;;14.18;71.55;99387.52;2184068;81;21638;-80
2022/09/22 11:50:40;;;;;;;8.58;7.55;;;;;;;14.20;70.81;99377.47;2185246;81;20995;-81
2022/09/22 11:53:40;;;;;;;7.40;6.80;;;;;;;14.34;70.64;99382.80;2185693;81;21015;-79
2022/09/22 11:56:41;;;;;;;7.95;7.15;;;;;;;14.53;69.03;99385.98;2186248;81;21356;-79
2022/09/22 11:59:44;;;;;;;7.00;6.40;;;;;;;14.65;68.19;99375.53;2186139;81;21038;-78
2022/09/22 12:02:45;;;;;;;8.00;7.00;;;;;;;14.72;68.69;99379.05;2186201;81;20971;-80
2022/09/22 12:05:45;;;;;;;11.83;7.03;;;;;;;14.68;65.94;99385.61;2185911;81;21441;-79
2022/09/22 12:08:45;;;;;;;6.70;6.20;;;;;;;14.68;67.89;99373.34;2185821;81;21043;-80
2022/09/22 12:11:45;;;;;;;7.47;6.47;;;;;;;14.75;69.00;99376.47;2185400;81;21007;-80
2022/09/22 12:14:46;;;;;;;6.83;6.20;;;;;;;14.67;67.58;99374.22;2185435;81;21316;-80
2022/09/22 12:17:46;;;;;;;7.65;6.87;;;;;;;14.55;67.42;99372.42;2185336;81;20990;-78
2022/09/22 12:20:47;;;;;;;6.95;6.35;;;;;;;14.48;68.24;99371.95;2182801;81;20988;-79
2022/09/22 12:23:50;;;;;;;7.47;6.78;;;;;;;14.53;69.19;99366.72;2181310;81;21008;-79
2022/09/22 12:26:50;;;;;;;7.80;7.10;;;;;;;14.62;69.41;99369.38;2180944;81;21475;-79
2022/09/22 12:29:51;;;;;;;6.50;5.90;;;;;;;14.75;68.92;99365.96;2180844;81;20975;-79
2022/09/22 12:32:51;;;;;;;6.20;5.70;;;;;;;14.79;68.55;99370.79;2181185;81;21308;-78
2022/09/22 12:35:52;;;;;;;7.62;7.03;;;;;;;14.71;68.06;99372.48;2181514;81;20967;-79
2022/09/22 12:38:52;;;;;;;8.18;7.10;;;;;;;14.54;68.71;99365.41;2182550;81;21039;-79
2022/09/22 12:41:52;;;;;;;7.70;6.95;;;;;;;14.57;69.18;99368.48;2182882;81;21006;-78
2022/09/22 12:44:53;;;;;;;6.80;6.20;;;;;;;14.72;68.83;99363.72;2184002;81;21022;-79
2022/09/22 12:47:53;;;;;;;10.58;7.33;;;;;;;14.82;68.96;99356.34;2186691;81;20952;-86
2022/09/22 12:50:59;;;;;;;6.50;5.95;;;;;;;15.02;69.26;99355.95;2187039;81;21019;-80
2022/09/22 12:53:54;;;;;;;10.00;6.17;;;;;;;15.22;68.50;99359.50;2187548;81;21375;-80
2022/09/22 12:56:54;;;;;;;6.90;6.30;;;;;;;15.32;67.49;99351.61;2187410;81;20967;-78
2022/09/22 12:59:55;;;;;;;6.67;6.08;;;;;;;15.37;66.91;99356.44;2187889;81;20995;-80
2022/09/22 13:02:55;;;;;;;6.55;5.83;;;;;;;15.45;67.70;99353.37;2187450;81;20991;-79
2022/09/22 13:05:55;;;;;;;6.28;5.67;;;;;;;15.49;66.92;99356.45;2187482;81;21066;-79
2022/09/22 13:08:56;;;;;;;6.60;5.70;;;;;;;15.66;66.27;99360.45;2186773;81;20956;-82
2022/09/22 13:11:56;;;;;;;7.40;6.05;;;;;;;15.58;64.84;99354.72;2186735;81;21015;-79
2022/09/22 13:14:57;;;;;;;6.72;6.05;;;;;;;15.37;66.06;99359.07;2186652;81;20960;-79
2022/09/22 13:17:57;;;;;;;5.33;4.70;;;;;;;15.10;65.17;99360.79;2185984;81;21043;-78
2022/09/22 13:20:57;;;;;;;5.60;5.10;;;;;;;14.84;66.05;99356.79;2184064;81;20968;-79
2022/09/22 13:24:01;;;;;;;5.60;4.45;;;;;;;14.66;66.79;99360.20;2183667;81;21396;-79
2022/09/22 13:26:58;;;;;;;6.45;4.92;;;;;;;14.49;67.87;99361.01;2184604;81;21515;-78
2022/09/22 13:29:59;;;;;;;4.92;4.53;;;;;;;14.16;68.74;99369.56;2185659;81;20955;-80
2022/09/22 13:32:59;;;;;;;4.85;3.70;;;;;;;13.75;69.18;99375.81;2185346;81;21026;-79
2022/09/22 13:36:00;;;;;;;3.22;2.95;;;;;;;13.43;69.82;99367.69;2186154;81;21352;-79
2022/09/22 13:39:00;;;;;;;4.42;2.45;;;;;;;13.26;69.11;99371.03;2185446;81;21027;-79
2022/09/22 13:42:00;;;;;;;2.65;1.85;;;;;;;13.07;68.64;99379.55;2186001;81;21086;-77
2022/09/22 13:45:01;;;;;;;2.17;2.00;;;;;;;12.89;69.36;99383.25;2187201;81;20984;-81
2022/09/22 13:48:01;;;;;;;2.30;1.60;;;;;;;12.74;71.51;99369.13;2188216;81;21387;-79
2022/09/22 13:51:02;;;;;;;2.12;1.92;;;;;;;12.88;72.65;99365.77;2187852;81;21391;-81
2022/09/22 13:54:03;;;;;;;1.87;1.77;;;;;;;13.05;73.52;99362.93;2187909;81;20940;-80
2022/09/22 13:57:02;;;;;;;2.00;1.90;;;;;;;13.27;72.32;99351.82;2187058;81;21054;-79
2022/09/22 14:00:04;;;;;;;2.37;2.17;;;;;;;13.38;71.81;99348.86;2187281;81;20991;-80
2022/09/22 14:03:03;;;;;;;1.92;1.82;;;;;;;13.51;72.88;99343.72;2188282;81;20944;-81
2022/09/22 14:06:03;;;;;;;2.00;1.90;;;;;;;13.72;73.72;99345.19;2187510;81;21047;-80
2022/09/22 14:09:05;;;;;;;1.80;1.70;;;;;;;13.80;72.10;99342.19;2188190;81;21004;-80